createdAt,value
2023-01-23T00:00:24.732Z,33.57
2023-01-23T00:01:24.714Z,33.67
2023-01-23T00:02:24.734Z,33.67
2023-01-23T00:03:24.668Z,33.67
2023-01-23T00:04:24.784Z,33.67
2023-01-23T00:05:24.681Z,33.67
2023-01-23T00:06:24.686Z,33.67
2023-01-23T00:07:24.667Z,33.67
2023-01-23T00:08:24.641Z,33.67
2023-01-23T00:09:24.651Z,33.67
2023-01-23T00:10:24.620Z,33.67
2023-01-23T00:11:24.675Z,33.67
2023-01-23T00:12:24.600Z,33.67
2023-01-23T00:13:24.584Z,33.67
2023-01-23T00:14:24.560Z,33.67
2023-01-23T00:15:24.579Z,33.67
2023-01-23T00:16:24.544Z,33.67
2023-01-23T00:17:24.580Z,33.67
2023-01-23T00:18:24.538Z,33.67
2023-01-23T00:19:24.510Z,33.67
2023-01-23T00:20:24.522Z,33.57
2023-01-23T00:21:24.502Z,33.57
2023-01-23T00:22:24.583Z,33.67
2023-01-23T00:23:24.464Z,33.57
2023-01-23T00:24:24.501Z,33.57
2023-01-23T00:25:24.465Z,33.57
2023-01-23T00:26:24.485Z,33.57
2023-01-23T00:27:24.464Z,33.57
2023-01-23T00:28:24.442Z,33.57
2023-01-23T00:29:24.419Z,33.67
2023-01-23T00:30:24.409Z,33.57
2023-01-23T00:31:24.546Z,33.57
2023-01-23T00:32:24.397Z,33.57
2023-01-23T00:33:24.374Z,33.57
2023-01-23T00:34:24.363Z,33.57
2023-01-23T00:35:24.339Z,33.57
2023-01-23T00:36:24.379Z,33.47
2023-01-23T00:37:24.328Z,33.57
2023-01-23T00:38:24.357Z,33.57
2023-01-23T00:39:24.312Z,33.57
2023-01-23T00:40:24.309Z,33.47
2023-01-23T00:41:24.299Z,33.47
2023-01-23T00:42:24.293Z,33.47
2023-01-23T00:43:24.280Z,33.47
2023-01-23T00:44:24.281Z,33.47
2023-01-23T00:45:24.281Z,33.47
2023-01-23T00:46:24.262Z,33.47
2023-01-23T00:47:24.264Z,33.47
2023-01-23T00:48:24.204Z,33.47
2023-01-23T00:49:24.795Z,33.47
2023-01-23T00:50:24.193Z,33.57
2023-01-23T00:51:24.346Z,33.47
2023-01-23T00:52:24.172Z,33.57
2023-01-23T00:53:24.211Z,33.57
2023-01-23T00:54:24.193Z,33.47
2023-01-23T00:55:24.170Z,33.47
2023-01-23T00:56:24.130Z,33.47
2023-01-23T00:57:24.162Z,33.47
2023-01-23T00:58:24.115Z,33.47
2023-01-23T00:59:24.111Z,33.47
2023-01-23T01:00:24.092Z,33.47
2023-01-23T01:01:24.134Z,33.47
2023-01-23T01:02:24.206Z,33.47
2023-01-23T01:03:24.073Z,33.47
2023-01-23T01:04:24.117Z,33.47
2023-01-23T01:05:24.078Z,33.47
2023-01-23T01:06:24.033Z,33.47
2023-01-23T01:07:24.040Z,33.47
2023-01-23T01:08:24.008Z,33.47
2023-01-23T01:09:24.041Z,33.47
2023-01-23T01:10:23.997Z,33.47
2023-01-23T01:11:23.999Z,33.47
2023-01-23T01:12:23.958Z,33.47
2023-01-23T01:13:23.971Z,33.47
2023-01-23T01:14:23.972Z,33.47
2023-01-23T01:15:24.003Z,33.47
2023-01-23T01:17:20.746Z,33.47
2023-01-23T01:18:20.759Z,33.47
2023-01-23T01:19:20.715Z,33.47
2023-01-23T01:20:21.128Z,33.47
2023-01-23T01:21:20.712Z,33.47
2023-01-23T01:22:20.702Z,33.47
2023-01-23T01:23:20.690Z,33.57
2023-01-23T01:24:20.686Z,33.47
2023-01-23T01:25:20.673Z,33.47
2023-01-23T01:26:20.693Z,33.47
2023-01-23T01:27:20.647Z,33.47
2023-01-23T01:28:20.658Z,33.47
2023-01-23T01:29:20.646Z,33.47
2023-01-23T01:30:20.995Z,33.47
2023-01-23T01:31:20.675Z,33.47
2023-01-23T01:32:20.638Z,33.47
2023-01-23T01:33:20.575Z,33.47
2023-01-23T01:34:23.492Z,33.47
2023-01-23T01:35:20.592Z,33.47
2023-01-23T01:36:20.574Z,33.37
2023-01-23T01:37:20.541Z,33.47
2023-01-23T01:38:20.542Z,33.37
2023-01-23T01:39:20.543Z,33.37
2023-01-23T01:40:20.783Z,33.47
2023-01-23T01:41:20.514Z,33.47
2023-01-23T01:42:20.493Z,33.47
2023-01-23T01:43:20.527Z,33.37
2023-01-23T01:44:20.482Z,33.37
2023-01-23T01:45:20.526Z,33.47
2023-01-23T01:46:20.489Z,33.37
2023-01-23T01:47:20.486Z,33.37
2023-01-23T01:48:20.425Z,33.37
2023-01-23T01:49:20.455Z,33.37
2023-01-23T01:50:20.674Z,33.37
2023-01-23T01:51:20.424Z,33.27
2023-01-23T01:52:20.373Z,33.37
2023-01-23T01:53:20.429Z,33.37
2023-01-23T01:54:20.364Z,33.37
2023-01-23T01:55:20.363Z,33.37
2023-01-23T01:56:20.332Z,33.37
2023-01-23T01:57:20.365Z,33.27
2023-01-23T01:58:20.342Z,33.37
2023-01-23T01:59:20.344Z,33.37
2023-01-23T02:00:20.607Z,33.27
2023-01-23T02:01:20.334Z,33.27
2023-01-23T02:02:20.356Z,33.27
2023-01-23T02:03:20.294Z,33.27
2023-01-23T02:04:20.273Z,33.37
2023-01-23T02:05:20.278Z,33.37
2023-01-23T02:06:20.261Z,33.37
2023-01-23T02:07:20.292Z,33.27
2023-01-23T02:08:20.220Z,33.27
2023-01-23T02:09:20.242Z,33.37
2023-01-23T02:10:20.522Z,33.37
2023-01-23T02:11:20.213Z,33.27
2023-01-23T02:12:20.184Z,33.37
2023-01-23T02:13:20.203Z,33.37
2023-01-23T02:14:20.173Z,33.37
2023-01-23T02:15:20.188Z,33.37
2023-01-23T02:16:20.180Z,33.27
2023-01-23T02:17:20.144Z,33.27
2023-01-23T02:18:20.124Z,33.37
2023-01-23T02:19:20.165Z,33.37
2023-01-23T02:20:20.461Z,33.37
2023-01-23T02:21:20.104Z,33.27
2023-01-23T02:22:20.104Z,33.27
2023-01-23T02:23:20.073Z,33.27
2023-01-23T02:24:20.058Z,33.27
2023-01-23T02:25:20.123Z,33.27
2023-01-23T02:26:20.032Z,33.27
2023-01-23T02:27:20.044Z,33.37
2023-01-23T02:28:20.005Z,33.27
2023-01-23T02:29:20.018Z,33.27
2023-01-23T02:30:20.268Z,33.27
2023-01-23T02:31:20.080Z,33.37
2023-01-23T02:32:19.979Z,33.27
2023-01-23T02:33:20.005Z,33.27
2023-01-23T02:34:19.956Z,33.27
2023-01-23T02:35:19.993Z,33.27
2023-01-23T02:36:19.944Z,33.27
2023-01-23T02:37:19.945Z,33.27
2023-01-23T02:38:19.921Z,33.17
2023-01-23T02:39:19.907Z,33.17
2023-01-23T02:40:20.124Z,33.27
2023-01-23T02:41:19.940Z,33.27
2023-01-23T02:42:19.864Z,33.27
2023-01-23T02:43:19.885Z,33.27
2023-01-23T02:44:19.905Z,33.27
2023-01-23T02:45:19.857Z,33.27
2023-01-23T02:46:19.846Z,33.17
2023-01-23T02:47:19.834Z,33.27
2023-01-23T02:48:19.805Z,33.27
2023-01-23T02:49:19.811Z,33.27
2023-01-23T02:50:20.124Z,33.27
2023-01-23T02:51:19.837Z,33.27
2023-01-23T02:52:19.773Z,33.27
2023-01-23T02:53:19.861Z,33.27
2023-01-23T02:54:19.760Z,33.27
2023-01-23T02:55:19.765Z,33.27
2023-01-23T02:56:19.755Z,33.27
2023-01-23T02:57:19.768Z,33.17
2023-01-23T02:58:19.755Z,33.27
2023-01-23T02:59:19.723Z,33.27
2023-01-23T03:00:20.063Z,33.17
2023-01-23T03:01:19.723Z,33.17
2023-01-23T03:02:19.731Z,33.27
2023-01-23T03:03:19.694Z,33.17
2023-01-23T03:04:19.644Z,33.27
2023-01-23T03:05:19.647Z,33.17
2023-01-23T03:06:19.638Z,33.17
2023-01-23T03:07:19.656Z,33.17
2023-01-23T03:08:19.605Z,33.17
2023-01-23T03:09:19.639Z,33.17
2023-01-23T03:10:19.880Z,33.17
2023-01-23T03:11:20.547Z,33.17
2023-01-23T03:12:19.577Z,33.17
2023-01-23T03:13:19.586Z,33.17
2023-01-23T03:14:19.546Z,33.17
2023-01-23T03:15:19.556Z,33.17
2023-01-23T03:16:19.580Z,33.27
2023-01-23T03:17:19.596Z,33.17
2023-01-23T03:18:19.527Z,33.17
2023-01-23T03:19:19.542Z,33.17
2023-01-23T03:20:19.745Z,33.17
2023-01-23T03:21:19.534Z,33.17
2023-01-23T03:22:19.473Z,33.17
2023-01-23T03:23:19.483Z,33.27
2023-01-23T03:24:19.448Z,33.17
2023-01-23T03:25:19.454Z,33.27
2023-01-23T03:26:19.426Z,33.27
2023-01-23T03:27:19.446Z,33.17
2023-01-23T03:28:19.479Z,33.17
2023-01-23T03:29:19.417Z,33.17
2023-01-23T03:30:19.720Z,33.17
2023-01-23T03:31:19.419Z,33.17
2023-01-23T03:32:19.377Z,33.17
2023-01-23T03:33:19.378Z,33.17
2023-01-23T03:34:19.366Z,33.17
2023-01-23T03:35:19.354Z,33.17
2023-01-23T03:36:19.325Z,33.17
2023-01-23T03:37:19.335Z,33.17
2023-01-23T03:38:19.310Z,33.17
2023-01-23T03:39:19.316Z,33.17
2023-01-23T03:40:19.601Z,33.07
2023-01-23T03:41:19.284Z,33.17
2023-01-23T03:42:19.306Z,33.17
2023-01-23T03:43:19.275Z,33.17
2023-01-23T03:44:19.259Z,33.17
2023-01-23T03:45:19.264Z,33.17
2023-01-23T03:46:19.236Z,33.17
2023-01-23T03:47:19.225Z,33.17
2023-01-23T03:48:19.204Z,33.17
2023-01-23T03:49:19.216Z,33.17
2023-01-23T03:50:19.424Z,33.17
2023-01-23T03:51:19.230Z,33.07
2023-01-23T03:52:19.166Z,33.17
2023-01-23T03:53:19.165Z,33.17
2023-01-23T03:54:19.147Z,33.17
2023-01-23T03:55:19.863Z,33.17
2023-01-23T03:56:19.126Z,33.17
2023-01-23T03:57:19.138Z,33.17
2023-01-23T03:58:19.113Z,33.17
2023-01-23T03:59:19.105Z,33.17
2023-01-23T04:00:19.448Z,33.17
2023-01-23T04:01:19.120Z,33.17
2023-01-23T04:02:19.054Z,33.17
2023-01-23T04:03:19.064Z,33.17
2023-01-23T04:04:19.034Z,33.17
2023-01-23T04:05:19.045Z,33.17
2023-01-23T04:06:19.035Z,33.27
2023-01-23T04:07:19.035Z,33.17
2023-01-23T04:08:19.017Z,33.17
2023-01-23T04:09:19.018Z,33.17
2023-01-23T04:10:19.256Z,33.17
2023-01-23T04:11:19.006Z,33.17
2023-01-23T04:12:18.972Z,33.17
2023-01-23T04:13:18.966Z,33.07
2023-01-23T04:14:18.947Z,33.07
2023-01-23T04:15:18.947Z,33.17
2023-01-23T04:16:18.926Z,33.17
2023-01-23T04:17:18.945Z,33.17
2023-01-23T04:18:18.890Z,33.17
2023-01-23T04:19:18.905Z,33.17
2023-01-23T04:20:19.171Z,33.17
2023-01-23T04:21:18.890Z,33.17
2023-01-23T04:22:18.875Z,33.07
2023-01-23T04:23:18.876Z,33.17
2023-01-23T04:24:18.851Z,33.17
2023-01-23T04:25:18.844Z,33.17
2023-01-23T04:26:18.819Z,33.07
2023-01-23T04:27:18.870Z,33.07
2023-01-23T04:28:18.797Z,33.07
2023-01-23T04:29:18.844Z,33.07
2023-01-23T04:30:19.212Z,33.07
2023-01-23T04:31:18.859Z,33.07
2023-01-23T04:32:18.765Z,33.07
2023-01-23T04:33:18.811Z,33.07
2023-01-23T04:34:18.725Z,33.07
2023-01-23T04:35:18.735Z,33.07
2023-01-23T04:36:18.716Z,32.97
2023-01-23T04:37:18.714Z,32.97
2023-01-23T04:38:18.751Z,33.07
2023-01-23T04:39:18.755Z,33.07
2023-01-23T04:40:18.921Z,33.07
2023-01-23T04:41:18.677Z,33.07
2023-01-23T04:42:18.712Z,33.17
2023-01-23T04:43:18.662Z,33.07
2023-01-23T04:44:18.633Z,33.07
2023-01-23T04:45:18.638Z,33.07
2023-01-23T04:46:18.694Z,33.07
2023-01-23T04:47:18.629Z,33.07
2023-01-23T04:48:18.636Z,33.07
2023-01-23T04:49:18.646Z,33.07
2023-01-23T04:50:18.891Z,33.07
2023-01-23T04:51:18.612Z,33.07
2023-01-23T04:52:18.591Z,33.07
2023-01-23T04:53:18.598Z,33.07
2023-01-23T04:54:18.553Z,33.07
2023-01-23T04:55:18.527Z,33.07
2023-01-23T04:56:18.510Z,33.17
2023-01-23T04:57:18.506Z,33.17
2023-01-23T04:58:18.500Z,33.07
2023-01-23T04:59:18.507Z,32.97
2023-01-23T05:00:18.707Z,33.07
2023-01-23T05:01:18.509Z,33.07
2023-01-23T05:02:18.510Z,33.07
2023-01-23T05:03:18.482Z,33.07
2023-01-23T05:04:18.426Z,33.07
2023-01-23T05:05:18.448Z,33.07
2023-01-23T05:06:18.418Z,33.07
2023-01-23T05:07:18.429Z,33.07
2023-01-23T05:08:18.393Z,33.07
2023-01-23T05:09:18.400Z,33.07
2023-01-23T05:10:18.549Z,32.97
2023-01-23T05:11:18.366Z,33.07
2023-01-23T05:12:18.345Z,33.17
2023-01-23T05:13:18.389Z,33.07
2023-01-23T05:14:18.342Z,33.07
2023-01-23T05:15:18.330Z,32.97
2023-01-23T05:16:18.318Z,32.97
2023-01-23T05:17:18.306Z,33.07
2023-01-23T05:18:18.308Z,32.97
2023-01-23T05:19:19.111Z,32.97
2023-01-23T05:20:19.494Z,32.97
2023-01-23T05:21:18.288Z,32.97
2023-01-23T05:22:18.252Z,33.07
2023-01-23T05:23:18.289Z,32.97
2023-01-23T05:24:18.241Z,33.07
2023-01-23T05:25:18.230Z,33.07
2023-01-23T05:26:18.261Z,32.97
2023-01-23T05:27:18.197Z,32.97
2023-01-23T05:28:18.178Z,32.97
2023-01-23T05:29:18.197Z,32.97
2023-01-23T05:30:18.323Z,32.97
2023-01-23T05:31:18.246Z,32.87
2023-01-23T05:32:18.137Z,32.97
2023-01-23T05:33:18.160Z,32.87
2023-01-23T05:34:18.106Z,32.97
2023-01-23T05:35:18.138Z,32.97
2023-01-23T05:36:18.735Z,32.87
2023-01-23T05:37:18.110Z,32.87
2023-01-23T05:38:18.094Z,32.87
2023-01-23T05:39:18.101Z,32.87
2023-01-23T05:40:18.531Z,32.97
2023-01-23T05:41:18.057Z,32.97
2023-01-23T05:42:18.039Z,32.87
2023-01-23T05:43:18.080Z,32.87
2023-01-23T05:44:18.967Z,32.97
2023-01-23T05:45:18.267Z,32.87
2023-01-23T05:46:18.080Z,32.87
2023-01-23T05:47:17.987Z,32.87
2023-01-23T05:48:17.969Z,32.87
2023-01-23T05:49:18.028Z,32.87
2023-01-23T05:50:18.140Z,32.85
2023-01-23T05:51:17.999Z,32.87
2023-01-23T05:52:17.930Z,32.85
2023-01-23T05:53:17.980Z,32.85
2023-01-23T05:54:17.942Z,32.95
2023-01-23T05:55:18.706Z,32.95
2023-01-23T05:56:32.964Z,32.87
2023-01-23T05:57:17.871Z,32.97
2023-01-23T05:58:17.880Z,32.95
2023-01-23T05:59:17.885Z,32.87
2023-01-23T06:00:18.022Z,32.85
2023-01-23T06:01:18.655Z,32.87
2023-01-23T06:02:17.880Z,32.85
2023-01-23T06:03:17.839Z,32.85
2023-01-23T06:04:17.831Z,32.87
2023-01-23T06:05:17.850Z,32.85
2023-01-23T06:06:17.816Z,32.87
2023-01-23T06:07:17.798Z,32.87
2023-01-23T06:08:17.800Z,32.87
2023-01-23T06:09:17.768Z,32.85
2023-01-23T06:10:18.012Z,32.85
2023-01-23T06:11:17.779Z,32.85
2023-01-23T06:12:17.739Z,32.87
2023-01-23T06:13:17.717Z,32.87
2023-01-23T06:14:17.719Z,32.87
2023-01-23T06:15:17.709Z,32.87
2023-01-23T06:16:17.787Z,32.85
2023-01-23T06:18:14.528Z,32.85
2023-01-23T06:19:14.494Z,32.85
2023-01-23T06:20:14.511Z,32.87
2023-01-23T06:21:14.480Z,32.87
2023-01-23T06:22:14.451Z,32.97
2023-01-23T06:23:14.473Z,32.87
2023-01-23T06:24:14.443Z,32.87
2023-01-23T06:25:14.433Z,32.87
2023-01-23T06:26:14.441Z,32.85
2023-01-23T06:27:14.458Z,32.95
2023-01-23T06:28:14.400Z,32.87
2023-01-23T06:29:14.402Z,32.87
2023-01-23T06:30:14.365Z,32.75
2023-01-23T06:31:14.496Z,32.75
2023-01-23T06:32:14.372Z,32.75
2023-01-23T06:33:15.322Z,32.87
2023-01-23T06:34:14.321Z,32.76
2023-01-23T06:35:14.353Z,32.76
2023-01-23T06:36:14.309Z,32.76
2023-01-23T06:37:14.311Z,32.76
2023-01-23T06:38:14.281Z,32.85
2023-01-23T06:39:14.331Z,32.85
2023-01-23T06:40:14.304Z,32.76
2023-01-23T06:41:14.274Z,32.65
2023-01-23T06:42:14.272Z,32.67
2023-01-23T06:43:14.253Z,32.67
2023-01-23T06:44:14.235Z,32.67
2023-01-23T06:45:14.273Z,32.67
2023-01-23T06:46:14.206Z,32.67
2023-01-23T06:47:14.200Z,32.67
2023-01-23T06:48:14.202Z,32.67
2023-01-23T06:49:14.191Z,32.67
2023-01-23T06:50:14.180Z,32.67
2023-01-23T06:51:14.226Z,32.76
2023-01-23T06:52:14.141Z,32.76
2023-01-23T06:53:14.112Z,32.76
2023-01-23T06:54:14.127Z,32.76
2023-01-23T06:55:14.693Z,33.07
2023-01-23T06:56:14.120Z,33.77
2023-01-23T06:57:14.115Z,33.47
2023-01-23T06:58:14.101Z,33.27
2023-01-23T06:59:14.083Z,33.27
2023-01-23T07:00:14.102Z,33.67
2023-01-23T07:01:14.053Z,33.77
2023-01-23T07:02:13.996Z,33.57
2023-01-23T07:03:14.089Z,33.47
2023-01-23T07:04:14.045Z,33.27
2023-01-23T07:05:14.035Z,33.37
2023-01-23T07:06:14.019Z,33.37
2023-01-23T07:07:14.013Z,33.37
2023-01-23T07:08:13.983Z,33.37
2023-01-23T07:09:13.980Z,33.47
2023-01-23T07:10:13.976Z,33.47
2023-01-23T07:11:14.017Z,33.47
2023-01-23T07:12:13.936Z,33.47
2023-01-23T07:13:13.954Z,33.47
2023-01-23T07:14:13.920Z,33.47
2023-01-23T07:15:13.961Z,33.57
2023-01-23T07:16:13.905Z,33.47
2023-01-23T07:17:13.912Z,33.47
2023-01-23T07:18:13.836Z,33.48
2023-01-23T07:19:13.831Z,33.47
2023-01-23T07:20:13.812Z,33.47
2023-01-23T07:21:14.485Z,33.47
2023-01-23T07:22:13.801Z,33.48
2023-01-23T07:23:13.799Z,33.48
2023-01-23T07:24:13.763Z,33.48
2023-01-23T07:25:13.764Z,33.48
2023-01-23T07:26:13.737Z,33.48
2023-01-23T07:27:14.691Z,33.48
2023-01-23T07:28:13.732Z,33.48
2023-01-23T07:29:13.720Z,33.48
2023-01-23T07:30:13.694Z,33.48
2023-01-23T07:31:13.860Z,33.48
2023-01-23T07:32:13.679Z,33.48
2023-01-23T07:33:13.683Z,33.48
2023-01-23T07:34:13.692Z,33.48
2023-01-23T07:35:13.700Z,33.48
2023-01-23T07:36:13.645Z,33.48
2023-01-23T07:37:13.643Z,33.48
2023-01-23T07:38:13.654Z,33.39
2023-01-23T07:39:13.627Z,33.39
2023-01-23T07:40:13.612Z,33.39
2023-01-23T07:41:13.601Z,33.39
2023-01-23T07:42:13.574Z,33.39
2023-01-23T07:43:13.570Z,33.39
2023-01-23T07:44:13.561Z,33.28
2023-01-23T07:45:13.601Z,33.28
2023-01-23T07:46:13.600Z,33.28
2023-01-23T07:47:13.531Z,33.28
2023-01-23T07:48:13.502Z,33.28
2023-01-23T07:49:13.513Z,33.28
2023-01-23T07:50:13.528Z,33.28
2023-01-23T07:51:13.569Z,33.28
2023-01-23T07:52:13.471Z,33.28
2023-01-23T07:53:13.484Z,33.28
2023-01-23T07:54:13.458Z,33.28
2023-01-23T07:55:13.500Z,33.28
2023-01-23T07:56:13.450Z,33.39
2023-01-23T07:57:13.438Z,33.28
2023-01-23T07:58:13.416Z,33.39
2023-01-23T07:59:13.414Z,33.39
2023-01-23T08:00:13.387Z,33.48
2023-01-23T08:01:13.415Z,33.48
2023-01-23T08:02:13.401Z,33.48
2023-01-23T08:03:13.361Z,33.48
2023-01-23T08:04:13.431Z,33.48
2023-01-23T08:05:13.344Z,33.48
2023-01-23T08:06:13.319Z,33.48
2023-01-23T08:07:13.505Z,33.48
2023-01-23T08:08:14.060Z,33.48
2023-01-23T08:09:13.302Z,33.48
2023-01-23T08:10:13.275Z,33.48
2023-01-23T08:11:13.274Z,33.48
2023-01-23T08:12:13.293Z,33.48
2023-01-23T08:13:13.304Z,33.48
2023-01-23T08:14:13.265Z,33.48
2023-01-23T08:15:13.237Z,33.48
2023-01-23T08:16:13.831Z,33.48
2023-01-23T08:17:13.213Z,33.48
2023-01-23T08:18:13.230Z,33.48
2023-01-23T08:19:13.237Z,33.48
2023-01-23T08:20:13.196Z,33.48
2023-01-23T08:21:13.180Z,33.48
2023-01-23T08:22:13.200Z,33.48
2023-01-23T08:23:13.147Z,33.48
2023-01-23T08:24:13.173Z,33.48
2023-01-23T08:25:13.124Z,33.48
2023-01-23T08:26:13.176Z,33.48
2023-01-23T08:27:13.111Z,33.48
2023-01-23T08:28:13.153Z,33.79
2023-01-23T08:29:13.082Z,33.69
2023-01-23T08:30:13.093Z,33.69
2023-01-23T08:31:13.223Z,33.59
2023-01-23T08:32:13.105Z,33.69
2023-01-23T08:33:13.044Z,33.69
2023-01-23T08:34:13.054Z,33.59
2023-01-23T08:35:13.044Z,33.59
2023-01-23T08:36:13.047Z,33.59
2023-01-23T08:37:13.018Z,33.59
2023-01-23T08:38:13.039Z,33.69
2023-01-23T08:39:13.013Z,33.69
2023-01-23T08:40:12.973Z,33.67
2023-01-23T08:41:13.144Z,33.67
2023-01-23T08:42:12.972Z,33.67
2023-01-23T08:43:12.943Z,33.67
2023-01-23T08:44:12.945Z,33.77
2023-01-23T08:45:12.952Z,33.77
2023-01-23T08:46:12.995Z,33.87
2023-01-23T08:47:12.913Z,33.87
2023-01-23T08:48:12.922Z,33.87
2023-01-23T08:49:12.876Z,33.97
2023-01-23T08:50:12.874Z,34.17
2023-01-23T08:51:12.958Z,34.38
2023-01-23T08:52:12.868Z,34.47
2023-01-23T08:53:12.835Z,34.27
2023-01-23T08:54:12.845Z,33.97
2023-01-23T08:55:12.853Z,34.07
2023-01-23T08:56:14.938Z,34.07
2023-01-23T08:57:12.793Z,34.07
2023-01-23T08:58:12.817Z,34.07
2023-01-23T08:59:12.804Z,33.97
2023-01-23T09:00:12.787Z,33.97
2023-01-23T09:01:12.764Z,33.97
2023-01-23T09:02:12.932Z,33.87
2023-01-23T09:03:12.745Z,33.87
2023-01-23T09:04:12.734Z,33.97
2023-01-23T09:05:12.713Z,33.87
2023-01-23T09:06:12.726Z,33.87
2023-01-23T09:07:12.695Z,33.97
2023-01-23T09:08:12.724Z,33.97
2023-01-23T09:09:12.664Z,33.97
2023-01-23T09:10:12.678Z,33.97
2023-01-23T09:11:12.650Z,34.07
2023-01-23T09:12:12.645Z,34.07
2023-01-23T09:13:12.751Z,34.07
2023-01-23T09:14:12.627Z,34.07
2023-01-23T09:15:12.615Z,33.97
2023-01-23T09:16:12.682Z,34.07
2023-01-23T09:17:12.585Z,34.07
2023-01-23T09:18:12.587Z,34.17
2023-01-23T09:19:12.583Z,34.17
2023-01-23T09:20:12.562Z,34.17
2023-01-23T09:21:12.545Z,34.17
2023-01-23T09:22:12.534Z,34.17
2023-01-23T09:23:12.508Z,34.27
2023-01-23T09:24:12.512Z,34.27
2023-01-23T09:25:12.661Z,34.38
2023-01-23T09:26:12.509Z,34.36
2023-01-23T09:27:12.484Z,34.38
2023-01-23T09:28:12.505Z,34.38
2023-01-23T09:29:12.486Z,34.36
2023-01-23T09:30:12.467Z,34.36
2023-01-23T09:31:12.477Z,34.36
2023-01-23T09:32:12.455Z,34.46
2023-01-23T09:33:12.426Z,34.46
2023-01-23T09:34:12.462Z,34.46
2023-01-23T09:35:12.396Z,34.46
2023-01-23T09:36:12.408Z,34.46
2023-01-23T09:37:12.397Z,34.46
2023-01-23T09:38:12.398Z,34.46
2023-01-23T09:39:12.354Z,34.46
2023-01-23T09:40:12.365Z,34.46
2023-01-23T09:41:12.323Z,34.26
2023-01-23T09:42:12.355Z,34.26
2023-01-23T09:43:12.335Z,34.26
2023-01-23T09:44:12.314Z,34.26
2023-01-23T09:45:12.285Z,34.26
2023-01-23T09:46:12.382Z,34.26
2023-01-23T09:47:12.303Z,34.26
2023-01-23T09:48:12.279Z,34.26
2023-01-23T09:49:12.258Z,34.16
2023-01-23T09:50:12.287Z,34.26
2023-01-23T09:51:12.247Z,34.26
2023-01-23T09:52:12.242Z,34.26
2023-01-23T09:53:12.211Z,34.46
2023-01-23T09:54:12.236Z,34.46
2023-01-23T09:55:12.204Z,34.46
2023-01-23T09:56:12.224Z,34.36
2023-01-23T09:57:12.201Z,34.36
2023-01-23T09:58:12.176Z,34.46
2023-01-23T09:59:12.158Z,34.46
2023-01-23T10:00:12.156Z,34.46
2023-01-23T10:01:12.147Z,34.46
2023-01-23T10:02:12.160Z,34.56
2023-01-23T10:03:12.135Z,34.56
2023-01-23T10:04:12.089Z,34.46
2023-01-23T10:05:12.126Z,34.36
2023-01-23T10:06:12.065Z,34.16
2023-01-23T10:07:12.118Z,34.16
2023-01-23T10:08:12.044Z,34.26
2023-01-23T10:09:12.052Z,34.26
2023-01-23T10:10:12.026Z,34.36
2023-01-23T10:11:12.026Z,34.36
2023-01-23T10:12:12.029Z,34.26
2023-01-23T10:13:12.034Z,34.26
2023-01-23T10:14:11.985Z,34.26
2023-01-23T10:15:12.007Z,34.36
2023-01-23T10:16:11.971Z,34.26
2023-01-23T10:17:12.061Z,34.26
2023-01-23T10:18:11.952Z,34.16
2023-01-23T10:19:11.944Z,34.16
2023-01-23T10:20:11.959Z,34.16
2023-01-23T10:21:11.909Z,34.06
2023-01-23T10:22:22.406Z,34.06
2023-01-23T10:23:12.898Z,34.06
2023-01-23T10:24:11.927Z,34.16
2023-01-23T10:25:11.896Z,34.06
2023-01-23T10:26:11.898Z,34.06
2023-01-23T10:27:11.856Z,34.16
2023-01-23T10:28:11.866Z,34.16
2023-01-23T10:29:11.844Z,34.16
2023-01-23T10:30:11.867Z,34.06
2023-01-23T10:31:11.900Z,34.06
2023-01-23T10:32:11.821Z,34.06
2023-01-23T10:33:11.787Z,34.16
2023-01-23T10:34:11.802Z,34.26
2023-01-23T10:35:11.775Z,34.26
2023-01-23T10:36:12.564Z,34.16
2023-01-23T10:37:11.747Z,34.26
2023-01-23T10:38:11.765Z,34.16
2023-01-23T10:39:11.757Z,34.16
2023-01-23T10:40:11.752Z,34.16
2023-01-23T10:41:11.767Z,34.06
2023-01-23T10:42:11.719Z,34.06
2023-01-23T10:43:11.687Z,34.06
2023-01-23T10:44:11.688Z,34.06
2023-01-23T10:45:11.694Z,34.06
2023-01-23T10:46:11.702Z,33.95
2023-01-23T10:47:11.645Z,33.86
2023-01-23T10:48:16.122Z,33.95
2023-01-23T10:49:11.645Z,33.95
2023-01-23T10:50:11.639Z,33.86
2023-01-23T10:51:11.656Z,33.86
2023-01-23T10:52:11.676Z,33.75
2023-01-23T10:53:11.575Z,33.75
2023-01-23T10:54:16.926Z,33.75
2023-01-23T10:55:12.557Z,33.75
2023-01-23T10:56:11.577Z,33.75
2023-01-23T10:57:11.557Z,33.65
2023-01-23T10:58:11.568Z,33.65
2023-01-23T10:59:11.517Z,33.65
2023-01-23T11:00:11.552Z,33.65
2023-01-23T11:01:11.550Z,33.55
2023-01-23T11:02:11.601Z,33.55
2023-01-23T11:03:11.535Z,33.55
2023-01-23T11:04:11.475Z,33.45
2023-01-23T11:05:11.455Z,33.45
2023-01-23T11:06:11.465Z,33.36
2023-01-23T11:07:11.436Z,33.36
2023-01-23T11:08:11.436Z,33.36
2023-01-23T11:09:11.429Z,33.25
2023-01-23T11:10:11.415Z,33.36
2023-01-23T11:11:11.399Z,33.36
2023-01-23T11:12:11.406Z,33.36
2023-01-23T11:13:11.387Z,33.36
2023-01-23T11:14:11.415Z,33.45
2023-01-23T11:15:11.372Z,33.36
2023-01-23T11:16:11.426Z,33.36
2023-01-23T11:17:11.379Z,33.36
2023-01-23T11:19:08.020Z,33.36
2023-01-23T11:20:08.007Z,33.36
2023-01-23T11:21:08.019Z,33.36
2023-01-23T11:22:07.989Z,33.36
2023-01-23T11:23:07.959Z,33.36
2023-01-23T11:24:07.978Z,33.36
2023-01-23T11:25:07.937Z,33.36
2023-01-23T11:26:07.952Z,33.45
2023-01-23T11:27:07.921Z,33.45
2023-01-23T11:28:07.919Z,33.45
2023-01-23T11:29:09.342Z,33.45
2023-01-23T11:30:07.954Z,33.45
2023-01-23T11:31:14.771Z,33.45
2023-01-23T11:32:09.147Z,33.45
2023-01-23T11:33:07.855Z,33.45
2023-01-23T11:34:07.878Z,33.45
2023-01-23T11:35:08.673Z,33.45
2023-01-23T11:36:07.835Z,33.45
2023-01-23T11:37:07.798Z,33.45
2023-01-23T11:38:07.849Z,33.45
2023-01-23T11:39:07.780Z,33.45
2023-01-23T11:40:07.807Z,33.45
2023-01-23T11:41:07.779Z,33.45
2023-01-23T11:42:07.781Z,33.55
2023-01-23T11:43:07.760Z,33.45
2023-01-23T11:44:08.074Z,33.55
2023-01-23T11:45:07.740Z,33.55
2023-01-23T11:46:07.783Z,33.55
2023-01-23T11:47:07.731Z,33.55
2023-01-23T11:48:07.710Z,33.55
2023-01-23T11:49:07.691Z,33.55
2023-01-23T11:50:07.718Z,33.55
2023-01-23T11:51:07.693Z,33.55
2023-01-23T11:52:07.669Z,33.55
2023-01-23T11:53:07.689Z,33.55
2023-01-23T11:54:07.738Z,33.55
2023-01-23T11:55:07.628Z,33.55
2023-01-23T11:56:07.693Z,33.55
2023-01-23T11:57:07.618Z,33.55
2023-01-23T11:58:07.621Z,33.55
2023-01-23T11:59:07.592Z,33.55
2023-01-23T12:00:07.609Z,33.55
2023-01-23T12:01:07.581Z,33.55
2023-01-23T12:02:07.602Z,33.55
2023-01-23T12:03:07.643Z,33.55
2023-01-23T12:04:07.634Z,33.55
2023-01-23T12:05:07.529Z,33.55
2023-01-23T12:06:19.716Z,33.55
2023-01-23T12:07:08.519Z,33.55
2023-01-23T12:08:07.514Z,33.55
2023-01-23T12:09:07.479Z,33.55
2023-01-23T12:10:07.527Z,33.55
2023-01-23T12:11:07.472Z,33.55
2023-01-23T12:12:07.493Z,33.55
2023-01-23T12:13:07.469Z,33.65
2023-01-23T12:14:07.454Z,33.65
2023-01-23T12:15:07.425Z,33.55
2023-01-23T12:16:07.457Z,33.55
2023-01-23T12:17:07.447Z,33.55
2023-01-23T12:18:07.422Z,33.55
2023-01-23T12:19:07.390Z,33.55
2023-01-23T12:20:07.389Z,33.47
2023-01-23T12:21:07.368Z,33.57
2023-01-23T12:22:07.398Z,33.67
2023-01-23T12:23:07.402Z,33.57
2023-01-23T12:24:07.352Z,33.57
2023-01-23T12:25:07.362Z,33.67
2023-01-23T12:26:07.341Z,33.77
2023-01-23T12:27:07.319Z,33.77
2023-01-23T12:28:07.313Z,33.87
2023-01-23T12:29:07.288Z,33.87
2023-01-23T12:30:07.319Z,33.87
2023-01-23T12:31:07.370Z,33.87
2023-01-23T12:32:07.464Z,33.97
2023-01-23T12:33:07.359Z,33.97
2023-01-23T12:34:07.261Z,34.07
2023-01-23T12:35:07.218Z,34.07
2023-01-23T12:36:07.252Z,34.17
2023-01-23T12:37:14.189Z,34.27
2023-01-23T12:38:08.210Z,34.38
2023-01-23T12:39:07.195Z,34.38
2023-01-23T12:40:08.610Z,34.47
2023-01-23T12:41:07.173Z,34.47
2023-01-23T12:42:07.245Z,34.47
2023-01-23T12:43:07.153Z,34.47
2023-01-23T12:44:07.156Z,34.58
2023-01-23T12:45:07.144Z,34.56
2023-01-23T12:46:07.142Z,34.58
2023-01-23T12:47:07.171Z,34.67
2023-01-23T12:48:07.123Z,34.66
2023-01-23T12:49:07.090Z,34.67
2023-01-23T12:50:07.093Z,34.76
2023-01-23T12:51:07.080Z,34.76
2023-01-23T12:52:07.083Z,34.88
2023-01-23T12:53:07.047Z,34.88
2023-01-23T12:54:07.086Z,34.86
2023-01-23T12:55:07.088Z,34.86